Time;durP1;ratioP1;P1;durP2;ratioP2;P2;SDS_P1;SDS_P2;PMS_P1;PMS_P2;Temp;Humidity;BMP_temperature;BMP_pressure;BME280_temperature;BME280_humidity;BME280_pressure;Samples;Min_cycle;Max_cycle;Signal;HPM_P1;HPM_P2
2021/08/08 00:00:41;;;;;;;11.13;3.33;;;;;;;;;;5095738;28;20496;-76
2021/08/08 00:03:07;;;;;;;9.52;2.78;;;;;;;;;;5095542;28;20020;-77
2021/08/08 00:05:33;;;;;;;6.60;2.53;;;;;;;;;;5095685;28;20020;-76
2021/08/08 00:07:59;;;;;;;10.20;2.83;;;;;;;;;;5095856;28;20036;-76
2021/08/08 00:10:25;;;;;;;8.02;2.92;;;;;;;;;;5095680;28;20021;-77
2021/08/08 00:12:51;;;;;;;12.60;2.65;;;;;;;;;;5095557;28;20044;-76
2021/08/08 00:15:18;;;;;;;8.20;2.53;;;;;;;;;;5095408;28;20039;-74
2021/08/08 00:17:44;;;;;;;9.20;2.97;;;;;;;;;;5095507;28;20093;-76
2021/08/08 00:20:11;;;;;;;8.00;2.92;;;;;;;;;;5095418;28;20031;-76
2021/08/08 00:22:37;;;;;;;4.57;2.50;;;;;;;;;;5095361;28;20024;-76
2021/08/08 00:25:04;;;;;;;6.25;2.67;;;;;;;;;;5095279;28;20024;-77
2021/08/08 00:27:30;;;;;;;6.38;3.00;;;;;;;;;;5095219;28;20046;-75
2021/08/08 00:29:56;;;;;;;5.13;2.55;;;;;;;;;;5095336;28;20111;-75
2021/08/08 00:32:23;;;;;;;10.48;3.08;;;;;;;;;;5095352;28;20016;-77
2021/08/08 00:34:49;;;;;;;10.50;2.55;;;;;;;;;;5095059;28;20031;-76
2021/08/08 00:37:15;;;;;;;5.78;2.33;;;;;;;;;;5095154;28;20444;-77
2021/08/08 00:39:41;;;;;;;5.70;2.80;;;;;;;;;;5094997;28;20141;-76
2021/08/08 00:42:08;;;;;;;6.65;2.85;;;;;;;;;;5094827;28;20464;-77
2021/08/08 00:44:34;;;;;;;8.52;3.10;;;;;;;;;;5094893;28;20468;-77
2021/08/08 00:47:00;;;;;;;6.53;2.67;;;;;;;;;;5094779;28;20032;-75
2021/08/08 00:49:26;;;;;;;7.03;2.97;;;;;;;;;;5094970;28;20039;-76
2021/08/08 00:51:52;;;;;;;6.85;2.65;;;;;;;;;;5094990;28;20389;-76
2021/08/08 00:54:18;;;;;;;10.32;2.78;;;;;;;;;;5094508;28;20032;-77
2021/08/08 00:56:44;;;;;;;13.65;3.90;;;;;;;;;;5094405;28;20016;-74
2021/08/08 00:59:10;;;;;;;6.10;2.78;;;;;;;;;;5091958;28;20400;-75
2021/08/08 01:01:40;;;;;;;6.90;2.50;;;;;;;;;;5091854;28;20031;-77
2021/08/08 01:04:08;;;;;;;9.02;2.42;;;;;;;;;;5092168;28;20020;-76
2021/08/08 01:06:40;;;;;;;11.10;3.03;;;;;;;;;;5093779;28;20060;-77
2021/08/08 01:09:07;;;;;;;9.40;2.88;;;;;;;;;;5094144;28;20377;-76
2021/08/08 01:11:35;;;;;;;9.20;3.08;;;;;;;;;;5094190;28;20058;-76
2021/08/08 01:14:01;;;;;;;5.10;2.50;;;;;;;;;;5093908;28;20520;-76
2021/08/08 01:16:28;;;;;;;15.23;3.67;;;;;;;;;;5094180;28;20469;-75
2021/08/08 01:18:54;;;;;;;6.63;2.83;;;;;;;;;;5094344;28;20434;-76
2021/08/08 01:21:22;;;;;;;7.50;2.83;;;;;;;;;;5093949;28;20108;-75
2021/08/08 01:23:56;;;;;;;10.85;2.60;;;;;;;;;;5094196;28;20069;-76
2021/08/08 01:26:22;;;;;;;8.05;2.70;;;;;;;;;;5094182;28;20024;-77
2021/08/08 01:28:49;;;;;;;8.63;3.15;;;;;;;;;;5093782;28;20064;-75
2021/08/08 01:31:15;;;;;;;9.85;3.03;;;;;;;;;;5093108;28;20368;-76
2021/08/08 01:33:41;;;;;;;10.68;3.00;;;;;;;;;;5093811;28;20467;-75
2021/08/08 01:36:07;;;;;;;14.57;3.55;;;;;;;;;;5093675;28;20388;-76
2021/08/08 01:38:34;;;;;;;6.05;2.97;;;;;;;;;;5094326;28;20376;-76
2021/08/08 01:41:02;;;;;;;4.22;2.40;;;;;;;;;;5093814;28;20024;-76
2021/08/08 01:43:32;;;;;;;5.38;2.70;;;;;;;;;;5093526;28;20439;-76
2021/08/08 01:46:03;;;;;;;8.80;2.90;;;;;;;;;;5093607;28;20028;-73
2021/08/08 01:48:30;;;;;;;10.88;2.80;;;;;;;;;;5093975;28;20396;-76
2021/08/08 01:50:56;;;;;;;6.85;2.58;;;;;;;;;;5093481;28;20028;-76
2021/08/08 01:53:23;;;;;;;8.73;2.63;;;;;;;;;;5093644;28;20028;-76
2021/08/08 01:55:49;;;;;;;8.00;2.85;;;;;;;;;;5093568;28;20020;-74
2021/08/08 01:58:15;;;;;;;5.55;2.45;;;;;;;;;;5093562;28;20405;-76
2021/08/08 02:00:41;;;;;;;6.07;2.60;;;;;;;;;;5093561;28;20016;-73
2021/08/08 02:03:09;;;;;;;5.32;2.47;;;;;;;;;;5093423;28;20028;-75
2021/08/08 02:05:35;;;;;;;7.82;2.67;;;;;;;;;;5093282;28;20106;-76
2021/08/08 02:08:01;;;;;;;7.30;2.72;;;;;;;;;;5092883;28;20028;-75
2021/08/08 02:10:27;;;;;;;4.68;2.30;;;;;;;;;;5093289;28;20376;-75
2021/08/08 02:12:53;;;;;;;6.25;2.22;;;;;;;;;;5092744;28;20493;-76
2021/08/08 02:15:19;;;;;;;5.07;2.42;;;;;;;;;;5093153;28;20032;-76
2021/08/08 02:17:45;;;;;;;5.57;2.60;;;;;;;;;;5093267;28;20115;-74
2021/08/08 02:20:12;;;;;;;7.18;2.75;;;;;;;;;;5093892;28;20107;-76
2021/08/08 02:22:39;;;;;;;9.20;2.78;;;;;;;;;;5093620;28;20024;-76
2021/08/08 02:25:05;;;;;;;11.93;3.20;;;;;;;;;;5093086;28;20376;-75
2021/08/08 02:27:31;;;;;;;6.97;2.95;;;;;;;;;;5093299;28;20078;-75
2021/08/08 02:29:57;;;;;;;9.55;2.70;;;;;;;;;;5093185;28;20024;-77
2021/08/08 02:32:23;;;;;;;6.97;2.70;;;;;;;;;;5093036;28;20121;-75
2021/08/08 02:34:49;;;;;;;6.50;2.53;;;;;;;;;;5092948;28;20032;-76
2021/08/08 02:37:15;;;;;;;7.82;2.40;;;;;;;;;;5093105;28;20085;-76
2021/08/08 02:39:41;;;;;;;8.93;2.60;;;;;;;;;;5093159;28;20464;-76
2021/08/08 02:42:07;;;;;;;8.95;2.47;;;;;;;;;;5092024;28;20375;-76
2021/08/08 02:44:33;;;;;;;9.07;2.42;;;;;;;;;;5093092;28;20028;-76
2021/08/08 02:46:59;;;;;;;6.00;3.10;;;;;;;;;;5093075;28;20028;-72
2021/08/08 02:49:25;;;;;;;12.00;2.55;;;;;;;;;;5092925;28;20067;-76
2021/08/08 02:51:54;;;;;;;10.00;2.65;;;;;;;;;;5092993;28;20384;-76
2021/08/08 02:54:20;;;;;;;12.75;2.83;;;;;;;;;;5093201;28;20043;-76
2021/08/08 02:56:47;;;;;;;9.57;3.28;;;;;;;;;;5093113;28;20051;-76
2021/08/08 02:59:13;;;;;;;10.52;2.70;;;;;;;;;;5093088;28;20027;-76
2021/08/08 03:01:39;;;;;;;5.90;2.50;;;;;;;;;;5092646;28;20074;-75
2021/08/08 03:04:05;;;;;;;6.00;2.25;;;;;;;;;;5092937;28;20056;-76
2021/08/08 03:06:31;;;;;;;7.38;2.53;;;;;;;;;;5092660;28;20027;-76
2021/08/08 03:08:57;;;;;;;8.55;2.58;;;;;;;;;;5092814;28;20067;-76
2021/08/08 03:11:23;;;;;;;7.38;2.80;;;;;;;;;;5092756;28;20023;-76
2021/08/08 03:13:49;;;;;;;5.65;2.50;;;;;;;;;;5092547;28;20052;-76
2021/08/08 03:16:15;;;;;;;10.70;2.40;;;;;;;;;;5092601;28;20024;-76
2021/08/08 03:18:41;;;;;;;7.80;2.30;;;;;;;;;;5095280;28;20028;-71
2021/08/08 03:21:07;;;;;;;10.07;2.30;;;;;;;;;;5096489;28;20028;-76
2021/08/08 03:23:34;;;;;;;7.40;2.40;;;;;;;;;;5096396;28;20024;-76
2021/08/08 03:26:01;;;;;;;7.28;2.42;;;;;;;;;;5096565;28;20030;-76
2021/08/08 03:28:27;;;;;;;8.77;2.50;;;;;;;;;;5096303;28;20028;-76
2021/08/08 03:30:53;;;;;;;6.72;2.63;;;;;;;;;;5096465;28;20016;-76
2021/08/08 03:33:19;;;;;;;7.47;2.60;;;;;;;;;;5096541;28;20032;-76
2021/08/08 03:35:45;;;;;;;9.48;2.28;;;;;;;;;;5096607;28;20081;-76
2021/08/08 03:38:11;;;;;;;5.85;2.28;;;;;;;;;;5096576;28;20062;-76
2021/08/08 03:40:37;;;;;;;8.90;2.50;;;;;;;;;;5096147;28;20021;-76
2021/08/08 03:43:04;;;;;;;10.88;2.78;;;;;;;;;;5096116;28;20028;-76
2021/08/08 03:45:30;;;;;;;7.05;2.25;;;;;;;;;;5095739;28;20028;-73
2021/08/08 03:47:56;;;;;;;21.38;3.22;;;;;;;;;;5095934;28;20027;-76
2021/08/08 03:50:22;;;;;;;5.75;2.40;;;;;;;;;;5096298;28;20031;-75
2021/08/08 03:52:48;;;;;;;12.25;2.65;;;;;;;;;;5096162;28;20381;-76
2021/08/08 03:55:14;;;;;;;9.80;2.30;;;;;;;;;;5095978;28;20095;-75
2021/08/08 03:57:40;;;;;;;6.25;2.20;;;;;;;;;;5095668;28;20024;-77
2021/08/08 04:00:07;;;;;;;7.80;3.38;;;;;;;;;;5095874;28;20426;-74
2021/08/08 04:02:33;;;;;;;6.95;2.28;;;;;;;;;;5095805;28;20024;-76
2021/08/08 04:04:59;;;;;;;8.25;2.28;;;;;;;;;;5095457;28;20034;-76
2021/08/08 04:07:25;;;;;;;7.55;2.33;;;;;;;;;;5095503;28;20107;-76
2021/08/08 04:09:51;;;;;;;8.80;2.80;;;;;;;;;;5095777;28;20071;-76
2021/08/08 04:12:17;;;;;;;7.18;2.63;;;;;;;;;;5095737;28;20024;-76
2021/08/08 04:14:43;;;;;;;7.68;2.60;;;;;;;;;;5095563;28;20036;-75
2021/08/08 04:17:09;;;;;;;5.97;2.35;;;;;;;;;;5095549;28;20028;-77
2021/08/08 04:19:36;;;;;;;5.43;2.40;;;;;;;;;;5095718;28;20035;-75
2021/08/08 04:22:02;;;;;;;6.53;2.67;;;;;;;;;;5094148;28;20119;-75
2021/08/08 04:24:29;;;;;;;11.95;2.75;;;;;;;;;;5095042;28;20078;-76
2021/08/08 04:26:55;;;;;;;5.75;2.40;;;;;;;;;;5095290;28;20028;-75
2021/08/08 04:29:21;;;;;;;7.30;2.08;;;;;;;;;;5094347;28;20114;-76
2021/08/08 04:31:47;;;;;;;8.55;2.38;;;;;;;;;;5095264;28;20031;-76
2021/08/08 04:34:14;;;;;;;7.15;2.72;;;;;;;;;;5095638;28;20027;-75
2021/08/08 04:36:40;;;;;;;10.02;2.63;;;;;;;;;;5095069;28;20024;-75
2021/08/08 04:39:06;;;;;;;10.05;3.42;;;;;;;;;;5095032;28;20058;-76
2021/08/08 04:41:32;;;;;;;10.75;3.00;;;;;;;;;;5094804;28;20411;-76
2021/08/08 04:43:58;;;;;;;8.77;2.50;;;;;;;;;;5095116;28;20032;-77
2021/08/08 04:46:24;;;;;;;8.15;2.28;;;;;;;;;;5094859;28;20575;-76
2021/08/08 04:48:50;;;;;;;7.07;2.33;;;;;;;;;;5094920;28;20145;-76
2021/08/08 04:51:16;;;;;;;9.45;2.60;;;;;;;;;;5094902;28;20016;-75
2021/08/08 04:53:42;;;;;;;9.00;2.33;;;;;;;;;;5094962;28;20127;-76
2021/08/08 04:56:08;;;;;;;8.98;2.83;;;;;;;;;;5094620;28;20065;-77
2021/08/08 04:58:34;;;;;;;5.95;2.45;;;;;;;;;;5095085;28;20028;-76
2021/08/08 05:01:00;;;;;;;8.77;2.50;;;;;;;;;;5094225;28;20024;-77
2021/08/08 05:03:27;;;;;;;7.80;2.17;;;;;;;;;;5094528;28;20089;-77
2021/08/08 05:05:53;;;;;;;11.02;2.25;;;;;;;;;;5094616;28;20423;-77
2021/08/08 05:08:19;;;;;;;6.07;2.38;;;;;;;;;;5094147;28;20472;-75
2021/08/08 05:10:45;;;;;;;8.05;2.35;;;;;;;;;;5094227;28;20024;-77
2021/08/08 05:13:11;;;;;;;12.68;3.63;;;;;;;;;;5094142;28;20484;-76
2021/08/08 05:15:37;;;;;;;9.25;2.70;;;;;;;;;;5094031;28;20017;-76
2021/08/08 05:18:03;;;;;;;7.53;2.58;;;;;;;;;;5094333;28;20069;-76
2021/08/08 05:20:29;;;;;;;7.85;2.38;;;;;;;;;;5094468;28;20031;-75
2021/08/08 05:22:55;;;;;;;9.80;2.17;;;;;;;;;;5094479;28;20035;-77
2021/08/08 05:25:21;;;;;;;10.07;2.50;;;;;;;;;;5093995;28;20029;-75
2021/08/08 05:27:47;;;;;;;7.00;2.15;;;;;;;;;;5091296;28;20031;-76
2021/08/08 05:30:14;;;;;;;9.80;2.88;;;;;;;;;;5092881;28;20028;-81
2021/08/08 05:32:43;;;;;;;5.25;2.03;;;;;;;;;;5092577;28;20026;-75
2021/08/08 05:35:09;;;;;;;7.53;2.40;;;;;;;;;;5091414;28;20420;-76
2021/08/08 05:37:35;;;;;;;5.68;1.95;;;;;;;;;;5091023;28;20032;-76
2021/08/08 05:40:05;;;;;;;10.18;2.38;;;;;;;;;;5091896;28;20028;-76
2021/08/08 05:42:33;;;;;;;5.78;1.98;;;;;;;;;;5092911;28;20016;-77
2021/08/08 05:44:59;;;;;;;8.48;3.20;;;;;;;;;;5093887;28;20020;-75
2021/08/08 05:47:25;;;;;;;10.65;2.33;;;;;;;;;;5093592;28;20035;-78
2021/08/08 05:49:51;;;;;;;7.10;2.20;;;;;;;;;;5093827;28;20123;-78
2021/08/08 05:52:18;;;;;;;9.57;2.03;;;;;;;;;;5092601;28;20027;-76
2021/08/08 05:54:44;;;;;;;4.80;1.92;;;;;;;;;;5093662;28;20035;-77
2021/08/08 05:57:10;;;;;;;6.68;2.08;;;;;;;;;;5093777;28;20095;-76
2021/08/08 05:59:36;;;;;;;10.98;2.80;;;;;;;;;;5093630;28;20028;-76
2021/08/08 06:02:02;;;;;;;7.10;2.40;;;;;;;;;;5093305;28;20020;-76
2021/08/08 06:04:28;;;;;;;6.88;2.17;;;;;;;;;;5093272;28;20024;-77
2021/08/08 06:06:54;;;;;;;5.45;1.98;;;;;;;;;;5093322;28;20024;-76
2021/08/08 06:09:20;;;;;;;7.90;2.20;;;;;;;;;;5093258;28;20032;-74
2021/08/08 06:11:46;;;;;;;9.25;2.72;;;;;;;;;;5092880;28;20024;-75
2021/08/08 06:14:12;;;;;;;8.88;2.33;;;;;;;;;;5092483;28;20075;-76
2021/08/08 06:16:38;;;;;;;12.10;2.10;;;;;;;;;;5092192;28;20027;-77
2021/08/08 06:19:04;;;;;;;7.97;2.42;;;;;;;;;;5092473;28;20024;-76
2021/08/08 06:21:30;;;;;;;9.45;2.25;;;;;;;;;;5093020;28;20020;-78
2021/08/08 06:23:57;;;;;;;6.47;2.03;;;;;;;;;;5092079;28;20024;-78
2021/08/08 06:26:23;;;;;;;9.07;2.20;;;;;;;;;;5092185;28;20031;-78
2021/08/08 06:28:49;;;;;;;5.22;1.80;;;;;;;;;;5091803;28;20032;-77
2021/08/08 06:31:15;;;;;;;7.43;2.22;;;;;;;;;;5090234;28;20024;-80
2021/08/08 06:33:41;;;;;;;7.50;2.10;;;;;;;;;;5090027;28;20036;-77
2021/08/08 06:36:07;;;;;;;6.20;2.22;;;;;;;;;;5089819;28;20429;-77
2021/08/08 06:38:35;;;;;;;5.15;2.03;;;;;;;;;;5090716;28;20027;-82
2021/08/08 06:41:01;;;;;;;6.30;2.17;;;;;;;;;;5092708;28;20020;-75
2021/08/08 06:43:27;;;;;;;8.65;2.25;;;;;;;;;;5101377;28;20027;-75
2021/08/08 06:45:53;;;;;;;6.60;2.30;;;;;;;;;;5134146;27;20034;-75
2021/08/08 06:48:19;;;;;;;6.82;2.38;;;;;;;;;;5133643;27;20080;-74
2021/08/08 06:50:45;;;;;;;11.70;2.40;;;;;;;;;;5133679;27;20027;-75
2021/08/08 06:53:11;;;;;;;8.20;2.97;;;;;;;;;;5135692;27;20023;-75
2021/08/08 06:55:37;;;;;;;5.97;2.42;;;;;;;;;;5135439;27;20398;-72
2021/08/08 06:58:03;;;;;;;9.20;2.30;;;;;;;;;;5133656;27;20538;-76
2021/08/08 07:00:29;;;;;;;8.93;2.47;;;;;;;;;;5136206;27;20027;-71
2021/08/08 07:02:55;;;;;;;6.63;2.22;;;;;;;;;;5137250;27;20045;-72
2021/08/08 07:05:21;;;;;;;11.15;2.92;;;;;;;;;;5137104;27;20023;-74
2021/08/08 07:07:47;;;;;;;6.45;2.35;;;;;;;;;;5137444;27;20030;-74
2021/08/08 07:10:13;;;;;;;6.85;2.40;;;;;;;;;;5136376;27;20027;-74
2021/08/08 07:12:40;;;;;;;6.53;2.30;;;;;;;;;;5137476;27;20035;-74
2021/08/08 07:15:07;;;;;;;6.70;2.55;;;;;;;;;;5137569;27;20110;-73
2021/08/08 07:17:33;;;;;;;9.25;2.30;;;;;;;;;;5137646;27;20031;-74
2021/08/08 07:19:59;;;;;;;10.35;2.38;;;;;;;;;;5137524;27;20106;-73
2021/08/08 07:22:25;;;;;;;9.43;2.70;;;;;;;;;;5136409;27;20367;-73
2021/08/08 07:24:52;;;;;;;8.43;2.28;;;;;;;;;;5137657;27;20030;-72
2021/08/08 07:27:19;;;;;;;15.95;2.65;;;;;;;;;;5137426;27;20060;-70
2021/08/08 07:29:45;;;;;;;10.00;3.05;;;;;;;;;;5137314;27;20027;-73
2021/08/08 07:32:11;;;;;;;10.95;2.97;;;;;;;;;;5137189;27;20030;-72
2021/08/08 07:34:37;;;;;;;10.77;2.80;;;;;;;;;;5137301;27;20028;-71
2021/08/08 07:37:03;;;;;;;11.82;3.25;;;;;;;;;;5137293;27;20653;-73
2021/08/08 07:39:31;;;;;;;9.80;2.72;;;;;;;;;;5137336;27;20027;-73
2021/08/08 07:41:57;;;;;;;6.93;2.40;;;;;;;;;;5137438;27;20099;-73
2021/08/08 07:44:23;;;;;;;10.48;2.78;;;;;;;;;;5137247;27;20031;-71
2021/08/08 07:46:49;;;;;;;12.27;3.15;;;;;;;;;;5137218;27;20019;-72
2021/08/08 07:49:15;;;;;;;10.75;2.95;;;;;;;;;;5137060;27;20039;-73
2021/08/08 07:51:42;;;;;;;8.35;2.60;;;;;;;;;;5137213;27;20106;-73
2021/08/08 07:54:08;;;;;;;9.15;3.13;;;;;;;;;;5137102;27;20471;-72
2021/08/08 07:56:34;;;;;;;8.75;2.55;;;;;;;;;;5136984;27;20056;-72
2021/08/08 07:59:00;;;;;;;11.45;2.47;;;;;;;;;;5137293;27;20494;-72
2021/08/08 08:01:26;;;;;;;12.05;2.70;;;;;;;;;;5136971;27;20093;-72
2021/08/08 08:03:52;;;;;;;8.60;2.40;;;;;;;;;;5136490;27;20023;-73
2021/08/08 08:06:18;;;;;;;14.30;2.67;;;;;;;;;;5136437;27;20471;-72
2021/08/08 08:08:44;;;;;;;8.63;2.72;;;;;;;;;;5136848;27;20035;-72
2021/08/08 08:11:10;;;;;;;14.07;2.63;;;;;;;;;;5136951;27;20030;-73
2021/08/08 08:13:36;;;;;;;9.77;2.83;;;;;;;;;;5136499;27;20039;-73
2021/08/08 08:16:02;;;;;;;10.25;2.50;;;;;;;;;;5136486;27;20068;-72
2021/08/08 08:18:28;;;;;;;9.40;2.78;;;;;;;;;;5137355;27;20019;-72
2021/08/08 08:20:54;;;;;;;10.68;3.10;;;;;;;;;;5137000;27;20038;-73
2021/08/08 08:23:21;;;;;;;13.05;3.17;;;;;;;;;;5136631;27;20058;-73
2021/08/08 08:25:47;;;;;;;8.35;2.90;;;;;;;;;;5136523;27;20023;-73
2021/08/08 08:28:13;;;;;;;12.35;3.15;;;;;;;;;;5136221;27;20027;-72
2021/08/08 08:30:40;;;;;;;15.18;2.97;;;;;;;;;;5136337;27;20031;-73
2021/08/08 08:33:06;;;;;;;10.30;2.45;;;;;;;;;;5136757;27;20505;-71
2021/08/08 08:35:33;;;;;;;8.63;2.40;;;;;;;;;;5136275;27;20023;-73
2021/08/08 08:37:59;;;;;;;14.90;2.63;;;;;;;;;;5136360;27;20555;-73
2021/08/08 08:40:25;;;;;;;12.32;3.25;;;;;;;;;;5136078;27;20024;-74
2021/08/08 08:42:54;;;;;;;12.68;2.45;;;;;;;;;;5136231;27;20059;-71
2021/08/08 08:45:20;;;;;;;7.85;2.50;;;;;;;;;;5135824;27;20482;-73
2021/08/08 08:47:47;;;;;;;8.85;2.90;;;;;;;;;;5135809;27;20034;-73
2021/08/08 08:50:13;;;;;;;9.02;2.65;;;;;;;;;;5136038;27;20051;-73
2021/08/08 08:52:40;;;;;;;9.05;2.60;;;;;;;;;;5135999;27;20095;-72
2021/08/08 08:55:06;;;;;;;6.85;2.78;;;;;;;;;;5135919;27;20023;-72
2021/08/08 08:57:32;;;;;;;8.23;2.50;;;;;;;;;;5136067;27;20019;-74
2021/08/08 08:59:59;;;;;;;13.18;3.08;;;;;;;;;;5134362;27;20386;-73
2021/08/08 09:02:25;;;;;;;7.68;2.50;;;;;;;;;;5135843;27;20031;-72
2021/08/08 09:04:51;;;;;;;10.80;3.75;;;;;;;;;;5135622;27;20084;-73
2021/08/08 09:07:17;;;;;;;12.00;2.85;;;;;;;;;;5135549;27;20542;-72
2021/08/08 09:09:43;;;;;;;10.15;3.08;;;;;;;;;;5135361;27;20288;-72
2021/08/08 09:12:09;;;;;;;8.85;2.72;;;;;;;;;;5135669;27;20038;-73
2021/08/08 09:14:36;;;;;;;9.95;2.80;;;;;;;;;;5135466;27;20534;-72
2021/08/08 09:17:02;;;;;;;10.27;4.07;;;;;;;;;;5135184;27;20102;-73
2021/08/08 09:19:30;;;;;;;8.80;2.60;;;;;;;;;;5135429;27;20053;-71
2021/08/08 09:21:56;;;;;;;10.73;2.60;;;;;;;;;;5135380;27;20027;-73
2021/08/08 09:24:26;;;;;;;8.40;2.70;;;;;;;;;;5135238;27;20047;-72
2021/08/08 09:27:01;;;;;;;10.75;2.70;;;;;;;;;;5135094;27;20458;-72
2021/08/08 09:29:27;;;;;;;11.23;2.97;;;;;;;;;;5135133;27;20039;-73
2021/08/08 09:31:54;;;;;;;12.50;3.25;;;;;;;;;;5135329;27;20023;-72
2021/08/08 09:34:36;;;;;;;7.53;2.40;;;;;;;;;;5135020;27;20043;-73
2021/08/08 09:37:04;;;;;;;11.30;2.95;;;;;;;;;;5135008;27;20015;-73
2021/08/08 09:39:34;;;;;;;15.82;2.90;;;;;;;;;;5134974;27;20015;-72
2021/08/08 09:42:07;;;;;;;10.43;2.80;;;;;;;;;;5134920;27;20030;-72
2021/08/08 09:44:34;;;;;;;7.55;2.50;;;;;;;;;;5134994;27;20468;-73
2021/08/08 09:47:00;;;;;;;14.88;2.85;;;;;;;;;;5134662;27;20379;-72
2021/08/08 09:49:26;;;;;;;13.35;2.72;;;;;;;;;;5134923;27;20394;-73
2021/08/08 09:51:52;;;;;;;18.50;3.55;;;;;;;;;;5134749;27;20454;-73
2021/08/08 09:54:21;;;;;;;8.10;2.85;;;;;;;;;;5134567;27;20471;-71
2021/08/08 09:56:57;;;;;;;10.80;2.80;;;;;;;;;;5134564;27;20054;-72
2021/08/08 09:59:23;;;;;;;15.68;2.80;;;;;;;;;;5133539;27;20055;-73
2021/08/08 10:01:49;;;;;;;15.57;3.00;;;;;;;;;;5134889;27;20023;-73
2021/08/08 10:04:15;;;;;;;10.82;3.05;;;;;;;;;;5134696;27;20483;-73
2021/08/08 10:06:41;;;;;;;12.10;2.92;;;;;;;;;;5134534;27;20047;-73
2021/08/08 10:09:11;;;;;;;7.43;2.80;;;;;;;;;;5134474;27;20035;-73
2021/08/08 10:11:37;;;;;;;7.88;2.60;;;;;;;;;;5134300;27;20383;-73
2021/08/08 10:14:03;;;;;;;6.88;2.30;;;;;;;;;;5134122;27;20411;-73
2021/08/08 10:16:31;;;;;;;10.60;3.28;;;;;;;;;;5134342;27;20027;-73
2021/08/08 10:19:01;;;;;;;11.45;3.20;;;;;;;;;;5134165;27;20027;-73
2021/08/08 10:21:27;;;;;;;8.10;2.92;;;;;;;;;;5134217;27;20027;-72
2021/08/08 10:23:54;;;;;;;9.68;3.05;;;;;;;;;;5134362;27;20030;-73
2021/08/08 10:26:20;;;;;;;10.75;2.70;;;;;;;;;;5134250;27;20027;-73
2021/08/08 10:28:48;;;;;;;14.52;3.00;;;;;;;;;;5133888;27;20034;-73
2021/08/08 10:31:17;;;;;;;12.32;3.00;;;;;;;;;;5134416;27;20028;-72
2021/08/08 10:33:53;;;;;;;9.73;2.72;;;;;;;;;;5134025;27;20020;-72
2021/08/08 10:36:30;;;;;;;13.55;2.85;;;;;;;;;;5134399;27;20030;-73
2021/08/08 10:39:12;;;;;;;7.68;2.60;;;;;;;;;;5134529;27;20027;-73
2021/08/08 10:41:39;;;;;;;14.43;2.65;;;;;;;;;;5134306;27;20427;-73
2021/08/08 10:44:09;;;;;;;8.30;2.75;;;;;;;;;;5133995;27;20493;-73
2021/08/08 10:46:48;;;;;;;13.85;2.90;;;;;;;;;;5134073;27;20054;-73
2021/08/08 10:49:15;;;;;;;9.38;2.72;;;;;;;;;;5133953;27;20062;-73
2021/08/08 10:51:41;;;;;;;11.93;2.85;;;;;;;;;;5134025;27;20034;-73
2021/08/08 10:54:08;;;;;;;13.23;2.90;;;;;;;;;;5134244;27;20031;-73
2021/08/08 10:56:40;;;;;;;8.57;2.67;;;;;;;;;;5133844;27;20030;-73
2021/08/08 10:59:13;;;;;;;10.07;2.67;;;;;;;;;;5134122;27;20023;-73
2021/08/08 11:01:39;;;;;;;13.48;2.78;;;;;;;;;;5133889;27;20023;-73
2021/08/08 11:04:07;;;;;;;13.68;3.53;;;;;;;;;;5133688;27;20040;-73
2021/08/08 11:06:34;;;;;;;8.55;2.88;;;;;;;;;;5133660;27;20034;-73
2021/08/08 11:09:00;;;;;;;11.23;3.35;;;;;;;;;;5133817;27;20039;-72
2021/08/08 11:11:28;;;;;;;11.63;2.58;;;;;;;;;;5133861;27;20020;-73
2021/08/08 11:13:55;;;;;;;9.85;2.45;;;;;;;;;;5133779;27;20043;-72
2021/08/08 11:16:21;;;;;;;11.38;3.20;;;;;;;;;;5133230;27;20034;-73
2021/08/08 11:18:54;;;;;;;9.13;2.75;;;;;;;;;;5133721;27;20027;-74
2021/08/08 11:21:21;;;;;;;9.30;2.50;;;;;;;;;;5133618;27;20555;-73
2021/08/08 11:23:52;;;;;;;11.07;3.50;;;;;;;;;;5132445;27;20035;-72
2021/08/08 11:26:18;;;;;;;;;;;;;;;;;;5130855;27;20019;-78
2021/08/08 11:28:51;;;;;;;11.98;2.88;;;;;;;;;;5130250;27;20391;-77
2021/08/08 11:31:21;;;;;;;9.88;2.50;;;;;;;;;;5131964;27;20022;-75
2021/08/08 11:33:54;;;;;;;11.13;2.90;;;;;;;;;;5133384;27;20034;-75
2021/08/08 11:36:26;;;;;;;7.15;2.95;;;;;;;;;;5133127;27;20364;-75
2021/08/08 11:38:56;;;;;;;8.52;2.28;;;;;;;;;;5134255;27;20073;-77
2021/08/08 11:41:23;;;;;;;10.02;3.15;;;;;;;;;;5136874;27;20027;-75
2021/08/08 11:43:49;;;;;;;10.35;2.85;;;;;;;;;;5134269;27;20487;-73
2021/08/08 11:46:22;;;;;;;7.05;2.63;;;;;;;;;;5134219;27;20035;-72
2021/08/08 11:48:48;;;;;;;9.27;3.20;;;;;;;;;;5136025;27;20374;-72
2021/08/08 11:51:18;;;;;;;7.63;2.72;;;;;;;;;;5136839;27;20363;-69
2021/08/08 11:53:45;;;;;;;8.90;2.50;;;;;;;;;;5132137;27;20027;-73
2021/08/08 11:56:22;;;;;;;13.07;3.17;;;;;;;;;;5134164;27;20042;-70
2021/08/08 11:58:49;;;;;;;11.63;2.72;;;;;;;;;;5135323;27;20042;-72
2021/08/08 12:01:19;;;;;;;9.48;2.63;;;;;;;;;;5136638;27;20031;-79
2021/08/08 12:03:46;;;;;;;7.40;2.45;;;;;;;;;;5137482;27;20020;-76
2021/08/08 12:06:12;;;;;;;7.22;2.35;;;;;;;;;;5137060;27;20463;-77
2021/08/08 12:08:38;;;;;;;8.68;2.88;;;;;;;;;;5136539;27;20035;-76
2021/08/08 12:11:04;;;;;;;9.15;2.88;;;;;;;;;;5136527;27;20031;-73
2021/08/08 12:13:31;;;;;;;7.72;2.55;;;;;;;;;;5136400;27;20036;-77
2021/08/08 12:15:57;;;;;;;13.18;2.63;;;;;;;;;;5136046;27;20029;-76
2021/08/08 12:18:27;;;;;;;11.18;2.90;;;;;;;;;;5136255;27;20027;-76
2021/08/08 12:20:53;;;;;;;13.30;3.10;;;;;;;;;;5136384;27;20019;-75
2021/08/08 12:23:22;;;;;;;13.23;2.90;;;;;;;;;;5136083;27;20016;-76
2021/08/08 12:25:57;;;;;;;10.00;3.20;;;;;;;;;;5136200;27;20476;-77
2021/08/08 12:28:26;;;;;;;9.02;2.53;;;;;;;;;;5136325;27;20034;-78
2021/08/08 12:30:52;;;;;;;10.80;3.28;;;;;;;;;;5135218;27;20109;-73
2021/08/08 12:33:18;;;;;;;9.27;2.90;;;;;;;;;;5133354;27;20030;-76
2021/08/08 12:35:45;;;;;;;11.25;2.70;;;;;;;;;;5133425;27;20168;-71
2021/08/08 12:38:12;;;;;;;12.10;3.50;;;;;;;;;;5135014;27;20022;-74
2021/08/08 12:40:51;;;;;;;11.00;2.60;;;;;;;;;;5135862;27;20031;-68
2021/08/08 12:43:28;;;;;;;10.07;2.58;;;;;;;;;;5135735;27;20098;-74
2021/08/08 12:46:23;;;;;;;11.10;2.38;;;;;;;;;;5134768;27;20491;-74
2021/08/08 12:49:09;;;;;;;10.90;2.95;;;;;;;;;;5136870;27;20066;-74
2021/08/08 12:51:42;;;;;;;7.00;2.38;;;;;;;;;;5134548;27;20034;-73
2021/08/08 12:54:08;;;;;;;9.60;2.45;;;;;;;;;;5133477;27;20030;-74
2021/08/08 12:56:35;;;;;;;9.02;2.55;;;;;;;;;;5133929;27;20540;-73
2021/08/08 12:59:31;;;;;;;;;;;;;;;;;;;;;
2021/08/08 13:01:58;;;;;;;10.18;2.60;;;;;;;;;;5129498;27;20046;-74
2021/08/08 13:04:24;;;;;;;6.35;2.50;;;;;;;;;;5135804;27;20031;-74
2021/08/08 13:06:53;;;;;;;8.68;2.38;;;;;;;;;;5138660;27;20026;-74
2021/08/08 13:09:31;;;;;;;7.38;2.42;;;;;;;;;;5139233;27;20035;-74
2021/08/08 13:11:58;;;;;;;11.00;2.65;;;;;;;;;;5138187;27;20016;-75
2021/08/08 13:14:27;;;;;;;9.25;2.70;;;;;;;;;;5120206;27;20463;-75
2021/08/08 13:17:08;;;;;;;7.90;2.28;;;;;;;;;;5140221;27;20184;-75
2021/08/08 13:19:43;;;;;;;10.00;2.70;;;;;;;;;;5139505;27;20034;-75
2021/08/08 13:22:09;;;;;;;14.02;2.67;;;;;;;;;;5136765;27;20027;-73
2021/08/08 13:24:36;;;;;;;11.23;2.85;;;;;;;;;;5139098;27;20045;-71
2021/08/08 13:27:08;;;;;;;9.90;2.58;;;;;;;;;;5137650;27;20019;-74
2021/08/08 13:29:43;;;;;;;7.88;2.50;;;;;;;;;;5136953;27;20147;-73
2021/08/08 13:32:15;;;;;;;12.27;2.55;;;;;;;;;;5135259;27;20470;-74
2021/08/08 13:34:53;;;;;;;7.70;2.35;;;;;;;;;;5135251;27;20031;-73
2021/08/08 13:37:25;;;;;;;12.55;2.97;;;;;;;;;;5134921;27;20031;-73
2021/08/08 13:39:51;;;;;;;;;;;;;;;;;;5133916;27;20111;-72
2021/08/08 13:42:23;;;;;;;10.32;2.70;;;;;;;;;;5134730;27;19903;-73
2021/08/08 13:44:49;;;;;;;12.25;2.90;;;;;;;;;;5132912;27;20139;-73
2021/08/08 13:47:15;;;;;;;9.55;2.60;;;;;;;;;;5134466;27;20520;-72
2021/08/08 13:49:41;;;;;;;9.40;2.90;;;;;;;;;;5134660;27;20077;-74
2021/08/08 13:52:07;;;;;;;10.93;2.90;;;;;;;;;;5134178;27;20023;-72
2021/08/08 13:54:33;;;;;;;14.60;2.40;;;;;;;;;;5134670;27;20031;-75
2021/08/08 13:56:59;;;;;;;6.80;2.40;;;;;;;;;;5134799;27;20023;-74
2021/08/08 13:59:25;;;;;;;12.70;3.28;;;;;;;;;;5134238;27;20038;-72
2021/08/08 14:01:52;;;;;;;12.38;2.70;;;;;;;;;;5133699;27;20032;-78
2021/08/08 14:04:18;;;;;;;12.23;2.60;;;;;;;;;;5134327;27;20490;-76
2021/08/08 14:06:44;;;;;;;9.63;2.38;;;;;;;;;;5133811;27;20019;-77
2021/08/08 14:09:10;;;;;;;7.47;2.70;;;;;;;;;;5134108;27;20475;-75
2021/08/08 14:11:36;;;;;;;12.23;2.80;;;;;;;;;;5134033;27;20061;-75
2021/08/08 14:14:02;;;;;;;13.27;3.47;;;;;;;;;;5133949;27;20059;-75
2021/08/08 14:16:29;;;;;;;10.05;2.63;;;;;;;;;;5134018;27;20027;-74
2021/08/08 14:19:16;;;;;;;15.27;2.55;;;;;;;;;;5133462;27;20100;-74
2021/08/08 14:21:42;;;;;;;12.13;2.60;;;;;;;;;;5133605;27;20050;-74
2021/08/08 14:24:08;;;;;;;9.18;2.80;;;;;;;;;;5132614;27;20503;-73
2021/08/08 14:26:42;;;;;;;7.43;2.78;;;;;;;;;;5134347;27;20031;-75
2021/08/08 14:29:11;;;;;;;9.63;2.70;;;;;;;;;;5134154;27;20062;-76
2021/08/08 14:31:37;;;;;;;7.68;2.53;;;;;;;;;;5130855;27;20032;-78
2021/08/08 14:34:06;;;;;;;15.82;3.03;;;;;;;;;;5134107;27;20049;-76
2021/08/08 14:36:32;;;;;;;9.32;2.70;;;;;;;;;;5135119;27;20019;-75
2021/08/08 14:41:51;;;;;;;10.20;2.55;;;;;;;;;;5122373;27;20058;-74
2021/08/08 14:44:30;;;;;;;8.75;2.53;;;;;;;;;;5134561;28;20031;-75